Grand Ridge, Illinois
Current Conditions -  °F | °C
As of 9:15 AM on Monday 24 Nov 2014 (Local Time) from KVYS Reporting Station
Light Snow Light Snow  
Wind Chill: 19°   Ceiling: 700
Heat Index: 32°   Visibility: 0.75mi
Dew Point: 31°   Wind: 25mph
Humidity: 96%   Direction: 260°W
Pressure: 29.32"   Gusts: 33mph
Location:  41.24°N, 88.83°W
Report Text: KVYS 241515Z AUTO 26022G29KT 3/4SM -SN OVC007 00/00 A2932 RMK AO2 T00001005
Loading
Personal Weather Stations






























Interactive Weather Map New forecast layout! Learn more

10-Day Weather Forecast

Advertisements
Track Severe Weather on mobile